sensor_id;sensor_type;location;lat;lon;timestamp;temperature;humidity
10492;DHT22;5293;51.464;-2.566;2023-07-13T00:02:06;16.70;99.90
10492;DHT22;5293;51.464;-2.566;2023-07-13T00:04:32;16.70;99.90
10492;DHT22;5293;51.464;-2.566;2023-07-13T00:06:58;16.70;99.90
10492;DHT22;5293;51.464;-2.566;2023-07-13T00:09:24;16.60;99.90
10492;DHT22;5293;51.464;-2.566;2023-07-13T00:11:57;16.60;99.90
10492;DHT22;5293;51.464;-2.566;2023-07-13T00:14:25;16.60;99.90
10492;DHT22;5293;51.464;-2.566;2023-07-13T00:16:51;16.60;99.90
10492;DHT22;5293;51.464;-2.566;2023-07-13T00:19:17;16.50;99.90
10492;DHT22;5293;51.464;-2.566;2023-07-13T00:21:43;16.50;99.90
10492;DHT22;5293;51.464;-2.566;2023-07-13T00:24:12;16.50;99.90
10492;DHT22;5293;51.464;-2.566;2023-07-13T00:26:41;16.40;99.90
10492;DHT22;5293;51.464;-2.566;2023-07-13T00:29:10;16.50;99.90
10492;DHT22;5293;51.464;-2.566;2023-07-13T00:31:35;16.50;99.90
10492;DHT22;5293;51.464;-2.566;2023-07-13T00:34:02;16.50;99.90
10492;DHT22;5293;51.464;-2.566;2023-07-13T00:36:29;16.60;99.90
10492;DHT22;5293;51.464;-2.566;2023-07-13T00:38:55;16.60;99.90
10492;DHT22;5293;51.464;-2.566;2023-07-13T00:41:20;16.60;99.90
10492;DHT22;5293;51.464;-2.566;2023-07-13T00:43:46;16.60;99.90
10492;DHT22;5293;51.464;-2.566;2023-07-13T00:46:17;16.60;99.90
10492;DHT22;5293;51.464;-2.566;2023-07-13T00:48:45;16.70;99.90
10492;DHT22;5293;51.464;-2.566;2023-07-13T00:51:11;16.60;99.90
10492;DHT22;5293;51.464;-2.566;2023-07-13T00:53:38;16.60;99.90
10492;DHT22;5293;51.464;-2.566;2023-07-13T00:56:04;16.50;99.90
10492;DHT22;5293;51.464;-2.566;2023-07-13T00:58:30;16.40;99.90
10492;DHT22;5293;51.464;-2.566;2023-07-13T01:00:56;16.30;99.90
10492;DHT22;5293;51.464;-2.566;2023-07-13T01:03:22;16.30;99.90
10492;DHT22;5293;51.464;-2.566;2023-07-13T01:05:49;16.20;99.90
10492;DHT22;5293;51.464;-2.566;2023-07-13T01:08:15;16.30;99.90
10492;DHT22;5293;51.464;-2.566;2023-07-13T01:10:50;16.20;99.90
10492;DHT22;5293;51.464;-2.566;2023-07-13T01:13:16;16.30;99.90
10492;DHT22;5293;51.464;-2.566;2023-07-13T01:15:47;16.30;99.90
10492;DHT22;5293;51.464;-2.566;2023-07-13T01:18:16;16.30;99.90
10492;DHT22;5293;51.464;-2.566;2023-07-13T01:20:51;16.30;99.90
10492;DHT22;5293;51.464;-2.566;2023-07-13T01:23:16;16.40;99.90
10492;DHT22;5293;51.464;-2.566;2023-07-13T01:25:42;16.40;99.90
10492;DHT22;5293;51.464;-2.566;2023-07-13T01:28:08;16.20;99.90
10492;DHT22;5293;51.464;-2.566;2023-07-13T01:30:39;16.30;99.90
10492;DHT22;5293;51.464;-2.566;2023-07-13T01:33:07;16.30;99.90
10492;DHT22;5293;51.464;-2.566;2023-07-13T01:35:33;16.30;99.90
10492;DHT22;5293;51.464;-2.566;2023-07-13T01:37:59;16.20;99.90
10492;DHT22;5293;51.464;-2.566;2023-07-13T01:40:27;16.30;99.90
10492;DHT22;5293;51.464;-2.566;2023-07-13T01:42:53;16.30;99.90
10492;DHT22;5293;51.464;-2.566;2023-07-13T01:45:19;16.20;99.90
10492;DHT22;5293;51.464;-2.566;2023-07-13T01:47:45;16.20;99.90
10492;DHT22;5293;51.464;-2.566;2023-07-13T01:50:10;16.10;99.90
10492;DHT22;5293;51.464;-2.566;2023-07-13T01:52:36;16.00;99.90
10492;DHT22;5293;51.464;-2.566;2023-07-13T01:55:02;16.00;99.90
10492;DHT22;5293;51.464;-2.566;2023-07-13T01:57:28;16.00;99.90
10492;DHT22;5293;51.464;-2.566;2023-07-13T01:59:54;16.10;99.90
10492;DHT22;5293;51.464;-2.566;2023-07-13T02:02:19;16.10;99.90
10492;DHT22;5293;51.464;-2.566;2023-07-13T02:04:45;16.00;99.90
10492;DHT22;5293;51.464;-2.566;2023-07-13T02:07:11;16.00;99.90
10492;DHT22;5293;51.464;-2.566;2023-07-13T02:09:37;16.00;99.90
10492;DHT22;5293;51.464;-2.566;2023-07-13T02:12:03;16.00;99.90
10492;DHT22;5293;51.464;-2.566;2023-07-13T02:14:28;16.00;99.90
10492;DHT22;5293;51.464;-2.566;2023-07-13T02:16:54;16.00;99.90
10492;DHT22;5293;51.464;-2.566;2023-07-13T02:19:20;15.90;99.90
10492;DHT22;5293;51.464;-2.566;2023-07-13T02:21:45;15.90;99.90
10492;DHT22;5293;51.464;-2.566;2023-07-13T02:24:11;15.90;99.90
10492;DHT22;5293;51.464;-2.566;2023-07-13T02:26:43;15.90;99.90
10492;DHT22;5293;51.464;-2.566;2023-07-13T02:29:09;15.90;99.90
10492;DHT22;5293;51.464;-2.566;2023-07-13T02:31:34;15.90;99.90
10492;DHT22;5293;51.464;-2.566;2023-07-13T02:34:01;15.90;99.90
10492;DHT22;5293;51.464;-2.566;2023-07-13T02:36:27;15.90;99.90
10492;DHT22;5293;51.464;-2.566;2023-07-13T02:38:52;15.90;99.90
10492;DHT22;5293;51.464;-2.566;2023-07-13T02:41:18;15.80;99.90
10492;DHT22;5293;51.464;-2.566;2023-07-13T02:43:44;15.90;99.90
10492;DHT22;5293;51.464;-2.566;2023-07-13T02:46:09;15.90;99.90
10492;DHT22;5293;51.464;-2.566;2023-07-13T02:48:36;15.90;99.90
10492;DHT22;5293;51.464;-2.566;2023-07-13T02:51:02;15.90;99.90
10492;DHT22;5293;51.464;-2.566;2023-07-13T02:53:28;15.90;99.90
10492;DHT22;5293;51.464;-2.566;2023-07-13T02:55:54;15.90;99.90
10492;DHT22;5293;51.464;-2.566;2023-07-13T02:58:20;15.80;99.90
10492;DHT22;5293;51.464;-2.566;2023-07-13T03:00:47;15.90;99.90
10492;DHT22;5293;51.464;-2.566;2023-07-13T03:03:13;15.90;99.90
10492;DHT22;5293;51.464;-2.566;2023-07-13T03:05:42;15.90;99.90
10492;DHT22;5293;51.464;-2.566;2023-07-13T03:08:11;15.90;99.90
10492;DHT22;5293;51.464;-2.566;2023-07-13T03:10:37;15.80;99.90
10492;DHT22;5293;51.464;-2.566;2023-07-13T03:13:05;15.80;99.90
10492;DHT22;5293;51.464;-2.566;2023-07-13T03:15:30;15.70;99.90
10492;DHT22;5293;51.464;-2.566;2023-07-13T03:17:56;15.70;99.90
10492;DHT22;5293;51.464;-2.566;2023-07-13T03:20:22;15.80;99.90
10492;DHT22;5293;51.464;-2.566;2023-07-13T03:22:47;15.70;99.90
10492;DHT22;5293;51.464;-2.566;2023-07-13T03:25:13;15.60;99.90
10492;DHT22;5293;51.464;-2.566;2023-07-13T03:27:38;15.60;99.90
10492;DHT22;5293;51.464;-2.566;2023-07-13T03:30:05;15.60;99.90
10492;DHT22;5293;51.464;-2.566;2023-07-13T03:32:32;15.60;99.90
10492;DHT22;5293;51.464;-2.566;2023-07-13T03:34:57;15.60;99.90
10492;DHT22;5293;51.464;-2.566;2023-07-13T03:37:23;15.50;99.90
10492;DHT22;5293;51.464;-2.566;2023-07-13T03:39:49;15.50;99.90
10492;DHT22;5293;51.464;-2.566;2023-07-13T03:42:14;15.50;99.90
10492;DHT22;5293;51.464;-2.566;2023-07-13T03:44:41;15.60;99.90
10492;DHT22;5293;51.464;-2.566;2023-07-13T03:47:07;15.50;99.90
10492;DHT22;5293;51.464;-2.566;2023-07-13T03:49:34;15.50;99.90
10492;DHT22;5293;51.464;-2.566;2023-07-13T03:52:00;15.50;99.90
10492;DHT22;5293;51.464;-2.566;2023-07-13T03:54:26;15.50;99.90
10492;DHT22;5293;51.464;-2.566;2023-07-13T03:56:52;15.40;99.90
10492;DHT22;5293;51.464;-2.566;2023-07-13T03:59:18;15.40;99.90
10492;DHT22;5293;51.464;-2.566;2023-07-13T04:01:44;15.40;99.90
10492;DHT22;5293;51.464;-2.566;2023-07-13T04:04:10;15.40;99.90
10492;DHT22;5293;51.464;-2.566;2023-07-13T04:06:35;15.40;99.90
10492;DHT22;5293;51.464;-2.566;2023-07-13T04:09:03;15.40;99.90
10492;DHT22;5293;51.464;-2.566;2023-07-13T04:11:32;15.40;99.90
10492;DHT22;5293;51.464;-2.566;2023-07-13T04:13:59;15.40;99.90
10492;DHT22;5293;51.464;-2.566;2023-07-13T04:16:25;15.40;99.90
10492;DHT22;5293;51.464;-2.566;2023-07-13T04:18:51;15.50;99.90
10492;DHT22;5293;51.464;-2.566;2023-07-13T04:21:20;15.50;99.90
10492;DHT22;5293;51.464;-2.566;2023-07-13T04:23:46;15.50;99.90
10492;DHT22;5293;51.464;-2.566;2023-07-13T04:26:12;15.50;99.90
10492;DHT22;5293;51.464;-2.566;2023-07-13T04:28:38;15.50;99.90
10492;DHT22;5293;51.464;-2.566;2023-07-13T04:31:04;15.50;99.90
10492;DHT22;5293;51.464;-2.566;2023-07-13T04:33:29;15.60;99.90
10492;DHT22;5293;51.464;-2.566;2023-07-13T04:35:55;15.60;99.90
10492;DHT22;5293;51.464;-2.566;2023-07-13T04:38:26;15.60;99.90
10492;DHT22;5293;51.464;-2.566;2023-07-13T04:40:58;15.70;99.90
10492;DHT22;5293;51.464;-2.566;2023-07-13T04:43:24;15.70;99.90
10492;DHT22;5293;51.464;-2.566;2023-07-13T04:45:51;15.70;99.90
10492;DHT22;5293;51.464;-2.566;2023-07-13T04:48:17;15.80;99.90
10492;DHT22;5293;51.464;-2.566;2023-07-13T04:50:43;15.80;99.90
10492;DHT22;5293;51.464;-2.566;2023-07-13T04:53:09;15.80;99.90
10492;DHT22;5293;51.464;-2.566;2023-07-13T04:55:36;15.80;99.90
10492;DHT22;5293;51.464;-2.566;2023-07-13T04:58:01;15.80;99.90
10492;DHT22;5293;51.464;-2.566;2023-07-13T05:00:28;15.80;99.90
10492;DHT22;5293;51.464;-2.566;2023-07-13T05:02:58;15.90;99.90
10492;DHT22;5293;51.464;-2.566;2023-07-13T05:05:25;15.90;99.90
10492;DHT22;5293;51.464;-2.566;2023-07-13T05:07:51;15.90;99.90
10492;DHT22;5293;51.464;-2.566;2023-07-13T05:10:17;15.90;99.90
10492;DHT22;5293;51.464;-2.566;2023-07-13T05:12:43;16.00;99.90
10492;DHT22;5293;51.464;-2.566;2023-07-13T05:15:10;16.00;99.90
10492;DHT22;5293;51.464;-2.566;2023-07-13T05:17:35;16.00;99.90
10492;DHT22;5293;51.464;-2.566;2023-07-13T05:20:01;16.00;99.90
10492;DHT22;5293;51.464;-2.566;2023-07-13T05:22:27;16.00;99.90
10492;DHT22;5293;51.464;-2.566;2023-07-13T05:24:52;16.10;99.90
10492;DHT22;5293;51.464;-2.566;2023-07-13T05:27:18;16.10;99.90
10492;DHT22;5293;51.464;-2.566;2023-07-13T05:29:43;16.10;99.90
10492;DHT22;5293;51.464;-2.566;2023-07-13T05:32:10;16.20;99.90
10492;DHT22;5293;51.464;-2.566;2023-07-13T05:34:35;16.30;99.90
10492;DHT22;5293;51.464;-2.566;2023-07-13T05:37:01;16.40;99.90
10492;DHT22;5293;51.464;-2.566;2023-07-13T05:39:27;16.50;99.90
10492;DHT22;5293;51.464;-2.566;2023-07-13T05:41:53;16.60;99.90
10492;DHT22;5293;51.464;-2.566;2023-07-13T05:44:18;16.60;99.90
10492;DHT22;5293;51.464;-2.566;2023-07-13T05:46:44;16.70;99.90
10492;DHT22;5293;51.464;-2.566;2023-07-13T05:49:10;16.70;99.90
10492;DHT22;5293;51.464;-2.566;2023-07-13T05:51:36;16.70;99.90
10492;DHT22;5293;51.464;-2.566;2023-07-13T05:54:02;16.70;99.90
10492;DHT22;5293;51.464;-2.566;2023-07-13T05:56:27;16.90;99.90
10492;DHT22;5293;51.464;-2.566;2023-07-13T05:58:53;17.00;99.90
10492;DHT22;5293;51.464;-2.566;2023-07-13T06:01:19;17.00;99.90
10492;DHT22;5293;51.464;-2.566;2023-07-13T06:03:46;17.00;99.90
10492;DHT22;5293;51.464;-2.566;2023-07-13T06:06:12;17.00;99.90
10492;DHT22;5293;51.464;-2.566;2023-07-13T06:08:39;17.00;99.90
10492;DHT22;5293;51.464;-2.566;2023-07-13T06:11:13;17.00;99.90
10492;DHT22;5293;51.464;-2.566;2023-07-13T06:13:40;17.10;99.90
10492;DHT22;5293;51.464;-2.566;2023-07-13T06:16:06;17.30;99.90
10492;DHT22;5293;51.464;-2.566;2023-07-13T06:18:33;17.30;99.90
10492;DHT22;5293;51.464;-2.566;2023-07-13T06:20:59;17.10;99.90
10492;DHT22;5293;51.464;-2.566;2023-07-13T06:23:25;17.20;99.90
10492;DHT22;5293;51.464;-2.566;2023-07-13T06:25:51;17.30;99.90
10492;DHT22;5293;51.464;-2.566;2023-07-13T06:28:17;17.40;99.90
10492;DHT22;5293;51.464;-2.566;2023-07-13T06:30:42;17.40;99.90
10492;DHT22;5293;51.464;-2.566;2023-07-13T06:33:08;17.50;99.90
10492;DHT22;5293;51.464;-2.566;2023-07-13T06:35:33;17.60;99.90
10492;DHT22;5293;51.464;-2.566;2023-07-13T06:37:59;17.70;99.90
10492;DHT22;5293;51.464;-2.566;2023-07-13T06:40:25;17.60;99.90
10492;DHT22;5293;51.464;-2.566;2023-07-13T06:42:51;17.60;99.90
10492;DHT22;5293;51.464;-2.566;2023-07-13T06:45:16;17.60;99.90
10492;DHT22;5293;51.464;-2.566;2023-07-13T06:47:42;17.40;99.90
10492;DHT22;5293;51.464;-2.566;2023-07-13T06:50:08;17.50;99.90
10492;DHT22;5293;51.464;-2.566;2023-07-13T06:52:34;17.60;99.90
10492;DHT22;5293;51.464;-2.566;2023-07-13T06:55:00;17.70;99.90
10492;DHT22;5293;51.464;-2.566;2023-07-13T06:57:25;17.70;99.90
10492;DHT22;5293;51.464;-2.566;2023-07-13T06:59:51;17.80;99.90
10492;DHT22;5293;51.464;-2.566;2023-07-13T07:02:17;17.70;99.90
10492;DHT22;5293;51.464;-2.566;2023-07-13T07:04:43;17.70;99.90
10492;DHT22;5293;51.464;-2.566;2023-07-13T07:07:08;17.60;99.90
10492;DHT22;5293;51.464;-2.566;2023-07-13T07:09:34;17.60;99.90
10492;DHT22;5293;51.464;-2.566;2023-07-13T07:12:00;17.50;99.90
10492;DHT22;5293;51.464;-2.566;2023-07-13T07:14:25;17.50;99.90
10492;DHT22;5293;51.464;-2.566;2023-07-13T07:16:51;17.50;99.90
10492;DHT22;5293;51.464;-2.566;2023-07-13T07:19:17;17.50;99.90
10492;DHT22;5293;51.464;-2.566;2023-07-13T07:21:42;17.50;99.90
10492;DHT22;5293;51.464;-2.566;2023-07-13T07:24:08;17.60;99.90
10492;DHT22;5293;51.464;-2.566;2023-07-13T07:26:34;17.60;99.90
10492;DHT22;5293;51.464;-2.566;2023-07-13T07:29:00;17.60;99.90
10492;DHT22;5293;51.464;-2.566;2023-07-13T07:31:25;17.60;99.90
10492;DHT22;5293;51.464;-2.566;2023-07-13T07:33:51;17.50;99.90
10492;DHT22;5293;51.464;-2.566;2023-07-13T07:36:17;17.50;99.90
10492;DHT22;5293;51.464;-2.566;2023-07-13T07:38:43;17.60;99.90
10492;DHT22;5293;51.464;-2.566;2023-07-13T07:41:09;17.60;99.90
10492;DHT22;5293;51.464;-2.566;2023-07-13T07:43:35;17.70;99.90
10492;DHT22;5293;51.464;-2.566;2023-07-13T07:46:01;17.90;99.90
10492;DHT22;5293;51.464;-2.566;2023-07-13T07:48:27;18.00;99.90
10492;DHT22;5293;51.464;-2.566;2023-07-13T07:50:52;18.00;99.90
10492;DHT22;5293;51.464;-2.566;2023-07-13T07:53:18;17.90;99.90
10492;DHT22;5293;51.464;-2.566;2023-07-13T07:55:43;18.00;99.90
10492;DHT22;5293;51.464;-2.566;2023-07-13T07:58:09;17.90;99.90
10492;DHT22;5293;51.464;-2.566;2023-07-13T08:00:35;17.80;99.90
10492;DHT22;5293;51.464;-2.566;2023-07-13T08:03:01;17.70;99.90
10492;DHT22;5293;51.464;-2.566;2023-07-13T08:05:28;17.70;99.90
10492;DHT22;5293;51.464;-2.566;2023-07-13T08:07:54;17.70;99.90
10492;DHT22;5293;51.464;-2.566;2023-07-13T08:10:20;17.60;99.90
10492;DHT22;5293;51.464;-2.566;2023-07-13T08:12:45;17.50;99.90
10492;DHT22;5293;51.464;-2.566;2023-07-13T08:15:13;17.50;99.90
10492;DHT22;5293;51.464;-2.566;2023-07-13T08:17:39;17.40;99.90
10492;DHT22;5293;51.464;-2.566;2023-07-13T08:20:05;17.40;99.90
10492;DHT22;5293;51.464;-2.566;2023-07-13T08:22:31;17.30;99.90
10492;DHT22;5293;51.464;-2.566;2023-07-13T08:24:57;17.30;99.90
10492;DHT22;5293;51.464;-2.566;2023-07-13T08:27:23;17.40;99.90
10492;DHT22;5293;51.464;-2.566;2023-07-13T08:29:49;17.40;99.90
10492;DHT22;5293;51.464;-2.566;2023-07-13T08:32:15;17.30;99.90
10492;DHT22;5293;51.464;-2.566;2023-07-13T08:34:42;17.40;99.90
10492;DHT22;5293;51.464;-2.566;2023-07-13T08:37:09;17.50;99.90
10492;DHT22;5293;51.464;-2.566;2023-07-13T08:39:35;17.50;99.90
10492;DHT22;5293;51.464;-2.566;2023-07-13T08:42:31;17.70;99.90
10492;DHT22;5293;51.464;-2.566;2023-07-13T08:47:22;17.90;99.90
10492;DHT22;5293;51.464;-2.566;2023-07-13T08:49:49;18.00;99.90
10492;DHT22;5293;51.464;-2.566;2023-07-13T08:52:30;18.10;99.90
10492;DHT22;5293;51.464;-2.566;2023-07-13T08:55:02;18.30;99.90
10492;DHT22;5293;51.464;-2.566;2023-07-13T08:57:33;18.50;99.90
10492;DHT22;5293;51.464;-2.566;2023-07-13T08:59:59;18.60;99.90
10492;DHT22;5293;51.464;-2.566;2023-07-13T09:02:44;18.70;99.90
10492;DHT22;5293;51.464;-2.566;2023-07-13T09:05:18;18.60;99.90
10492;DHT22;5293;51.464;-2.566;2023-07-13T09:08:00;18.70;99.90
10492;DHT22;5293;51.464;-2.566;2023-07-13T09:10:33;18.70;99.90
10492;DHT22;5293;51.464;-2.566;2023-07-13T09:13:09;18.70;99.90
10492;DHT22;5293;51.464;-2.566;2023-07-13T09:15:44;18.70;99.90
10492;DHT22;5293;51.464;-2.566;2023-07-13T09:20:50;18.80;99.90
10492;DHT22;5293;51.464;-2.566;2023-07-13T09:23:21;18.70;99.90
10492;DHT22;5293;51.464;-2.566;2023-07-13T09:25:51;18.60;99.90
10492;DHT22;5293;51.464;-2.566;2023-07-13T09:28:28;18.60;99.90
10492;DHT22;5293;51.464;-2.566;2023-07-13T09:33:40;18.70;99.90
10492;DHT22;5293;51.464;-2.566;2023-07-13T09:36:33;18.70;99.90
10492;DHT22;5293;51.464;-2.566;2023-07-13T09:39:26;18.70;99.90
10492;DHT22;5293;51.464;-2.566;2023-07-13T09:44:52;18.20;99.90
10492;DHT22;5293;51.464;-2.566;2023-07-13T09:49:57;18.10;99.90
10492;DHT22;5293;51.464;-2.566;2023-07-13T09:52:24;18.30;99.90
10492;DHT22;5293;51.464;-2.566;2023-07-13T09:54:52;18.40;99.90
10492;DHT22;5293;51.464;-2.566;2023-07-13T09:57:25;18.40;99.90
10492;DHT22;5293;51.464;-2.566;2023-07-13T09:59:52;18.60;99.90
10492;DHT22;5293;51.464;-2.566;2023-07-13T10:02:30;18.70;99.90
10492;DHT22;5293;51.464;-2.566;2023-07-13T10:05:13;18.70;99.90
10492;DHT22;5293;51.464;-2.566;2023-07-13T10:07:43;18.80;99.90
10492;DHT22;5293;51.464;-2.566;2023-07-13T10:10:21;18.80;99.90
10492;DHT22;5293;51.464;-2.566;2023-07-13T10:12:49;19.00;99.90
10492;DHT22;5293;51.464;-2.566;2023-07-13T10:15:19;19.20;99.90
10492;DHT22;5293;51.464;-2.566;2023-07-13T10:17:46;19.30;99.90
10492;DHT22;5293;51.464;-2.566;2023-07-13T10:20:12;19.30;99.90
10492;DHT22;5293;51.464;-2.566;2023-07-13T10:22:58;19.40;99.90
10492;DHT22;5293;51.464;-2.566;2023-07-13T10:25:27;19.70;99.90
10492;DHT22;5293;51.464;-2.566;2023-07-13T10:28:03;19.50;99.90
10492;DHT22;5293;51.464;-2.566;2023-07-13T10:30:35;19.50;99.90
10492;DHT22;5293;51.464;-2.566;2023-07-13T10:33:08;19.60;99.90
10492;DHT22;5293;51.464;-2.566;2023-07-13T10:35:36;19.80;99.90
10492;DHT22;5293;51.464;-2.566;2023-07-13T10:38:05;19.80;99.90
10492;DHT22;5293;51.464;-2.566;2023-07-13T10:40:45;19.90;99.90
10492;DHT22;5293;51.464;-2.566;2023-07-13T10:43:22;19.90;99.90
10492;DHT22;5293;51.464;-2.566;2023-07-13T10:45:49;19.90;99.90
10492;DHT22;5293;51.464;-2.566;2023-07-13T10:48:17;19.90;99.90
10492;DHT22;5293;51.464;-2.566;2023-07-13T10:50:45;19.90;99.90
10492;DHT22;5293;51.464;-2.566;2023-07-13T10:53:28;20.10;99.90
10492;DHT22;5293;51.464;-2.566;2023-07-13T10:56:00;20.20;99.90
10492;DHT22;5293;51.464;-2.566;2023-07-13T10:58:32;20.40;99.90
10492;DHT22;5293;51.464;-2.566;2023-07-13T11:01:17;20.50;99.90
10492;DHT22;5293;51.464;-2.566;2023-07-13T11:08:58;20.60;99.90
10492;DHT22;5293;51.464;-2.566;2023-07-13T11:18:50;20.60;99.90
10492;DHT22;5293;51.464;-2.566;2023-07-13T11:21:20;20.70;99.90
10492;DHT22;5293;51.464;-2.566;2023-07-13T11:23:54;20.60;99.90
10492;DHT22;5293;51.464;-2.566;2023-07-13T11:29:32;20.30;99.90
10492;DHT22;5293;51.464;-2.566;2023-07-13T11:32:00;20.20;99.90
10492;DHT22;5293;51.464;-2.566;2023-07-13T11:34:33;20.10;99.90
10492;DHT22;5293;51.464;-2.566;2023-07-13T11:37:01;20.30;99.90
10492;DHT22;5293;51.464;-2.566;2023-07-13T11:39:40;20.40;99.90
10492;DHT22;5293;51.464;-2.566;2023-07-13T11:42:12;20.40;99.90
10492;DHT22;5293;51.464;-2.566;2023-07-13T11:44:43;20.20;99.90
10492;DHT22;5293;51.464;-2.566;2023-07-13T11:47:18;20.30;99.90
10492;DHT22;5293;51.464;-2.566;2023-07-13T11:49:49;20.50;99.90
10492;DHT22;5293;51.464;-2.566;2023-07-13T11:52:22;20.40;99.90
10492;DHT22;5293;51.464;-2.566;2023-07-13T11:54:53;20.10;99.90
10492;DHT22;5293;51.464;-2.566;2023-07-13T11:57:31;20.20;99.90
10492;DHT22;5293;51.464;-2.566;2023-07-13T12:00:00;20.10;99.90
10492;DHT22;5293;51.464;-2.566;2023-07-13T12:02:33;20.10;99.90
10492;DHT22;5293;51.464;-2.566;2023-07-13T12:05:01;20.30;99.90
10492;DHT22;5293;51.464;-2.566;2023-07-13T12:07:30;20.30;99.90
10492;DHT22;5293;51.464;-2.566;2023-07-13T12:12:29;20.10;99.90
10492;DHT22;5293;51.464;-2.566;2023-07-13T12:14:55;20.20;99.90
10492;DHT22;5293;51.464;-2.566;2023-07-13T12:17:23;20.20;99.90
10492;DHT22;5293;51.464;-2.566;2023-07-13T12:19:50;20.30;99.90
10492;DHT22;5293;51.464;-2.566;2023-07-13T12:22:17;20.60;99.90
10492;DHT22;5293;51.464;-2.566;2023-07-13T12:24:44;20.80;99.90
10492;DHT22;5293;51.464;-2.566;2023-07-13T12:27:19;20.90;99.90
10492;DHT22;5293;51.464;-2.566;2023-07-13T12:30:15;21.00;99.90
10492;DHT22;5293;51.464;-2.566;2023-07-13T12:32:42;21.00;99.90
10492;DHT22;5293;51.464;-2.566;2023-07-13T12:35:15;21.00;99.90
10492;DHT22;5293;51.464;-2.566;2023-07-13T12:37:46;21.00;99.90
10492;DHT22;5293;51.464;-2.566;2023-07-13T12:40:20;20.90;99.90
10492;DHT22;5293;51.464;-2.566;2023-07-13T12:42:49;21.00;99.90
10492;DHT22;5293;51.464;-2.566;2023-07-13T12:45:24;20.90;99.90
10492;DHT22;5293;51.464;-2.566;2023-07-13T12:48:04;21.00;99.90
10492;DHT22;5293;51.464;-2.566;2023-07-13T12:50:42;20.90;99.90
10492;DHT22;5293;51.464;-2.566;2023-07-13T12:53:14;20.80;99.90
10492;DHT22;5293;51.464;-2.566;2023-07-13T12:55:47;20.70;99.90
10492;DHT22;5293;51.464;-2.566;2023-07-13T12:58:36;20.70;99.90
10492;DHT22;5293;51.464;-2.566;2023-07-13T13:01:02;20.80;99.90
10492;DHT22;5293;51.464;-2.566;2023-07-13T13:03:34;20.70;99.90
10492;DHT22;5293;51.464;-2.566;2023-07-13T13:06:01;20.60;99.90
10492;DHT22;5293;51.464;-2.566;2023-07-13T13:08:29;20.50;99.90
10492;DHT22;5293;51.464;-2.566;2023-07-13T13:10:55;20.50;99.90
10492;DHT22;5293;51.464;-2.566;2023-07-13T13:13:20;20.60;99.90
10492;DHT22;5293;51.464;-2.566;2023-07-13T13:15:46;20.70;99.90
10492;DHT22;5293;51.464;-2.566;2023-07-13T13:18:21;20.50;99.90
10492;DHT22;5293;51.464;-2.566;2023-07-13T13:20:48;20.40;99.90
10492;DHT22;5293;51.464;-2.566;2023-07-13T13:23:18;20.30;99.90
10492;DHT22;5293;51.464;-2.566;2023-07-13T13:25:49;20.20;99.90
10492;DHT22;5293;51.464;-2.566;2023-07-13T13:28:17;20.10;99.90
10492;DHT22;5293;51.464;-2.566;2023-07-13T13:30:43;20.30;99.90
10492;DHT22;5293;51.464;-2.566;2023-07-13T13:33:11;20.40;99.90
10492;DHT22;5293;51.464;-2.566;2023-07-13T13:35:37;20.60;99.90
10492;DHT22;5293;51.464;-2.566;2023-07-13T13:38:16;20.60;99.90
10492;DHT22;5293;51.464;-2.566;2023-07-13T13:40:43;20.70;99.90
10492;DHT22;5293;51.464;-2.566;2023-07-13T13:43:20;20.60;99.90
10492;DHT22;5293;51.464;-2.566;2023-07-13T13:45:46;20.70;99.90
10492;DHT22;5293;51.464;-2.566;2023-07-13T13:48:26;20.60;99.90
10492;DHT22;5293;51.464;-2.566;2023-07-13T13:50:56;20.70;99.90
10492;DHT22;5293;51.464;-2.566;2023-07-13T13:53:22;20.80;99.90
10492;DHT22;5293;51.464;-2.566;2023-07-13T13:55:52;20.90;99.90
10492;DHT22;5293;51.464;-2.566;2023-07-13T13:58:18;20.80;99.90
10492;DHT22;5293;51.464;-2.566;2023-07-13T14:00:45;20.90;99.90
10492;DHT22;5293;51.464;-2.566;2023-07-13T14:03:29;21.10;99.90
10492;DHT22;5293;51.464;-2.566;2023-07-13T14:05:55;21.20;99.90
10492;DHT22;5293;51.464;-2.566;2023-07-13T14:08:25;21.20;99.90
10492;DHT22;5293;51.464;-2.566;2023-07-13T14:10:53;21.00;99.90
10492;DHT22;5293;51.464;-2.566;2023-07-13T14:13:23;21.20;99.90
10492;DHT22;5293;51.464;-2.566;2023-07-13T14:15:52;21.10;99.90
10492;DHT22;5293;51.464;-2.566;2023-07-13T14:18:17;21.00;99.90
10492;DHT22;5293;51.464;-2.566;2023-07-13T14:20:44;20.90;99.90
10492;DHT22;5293;51.464;-2.566;2023-07-13T14:23:13;21.00;99.90
10492;DHT22;5293;51.464;-2.566;2023-07-13T14:25:38;20.90;99.90
10492;DHT22;5293;51.464;-2.566;2023-07-13T14:28:22;21.00;99.90
10492;DHT22;5293;51.464;-2.566;2023-07-13T14:30:49;21.10;99.90
10492;DHT22;5293;51.464;-2.566;2023-07-13T14:33:15;21.20;99.90
10492;DHT22;5293;51.464;-2.566;2023-07-13T14:35:41;21.20;99.90
10492;DHT22;5293;51.464;-2.566;2023-07-13T14:38:14;21.10;99.90
10492;DHT22;5293;51.464;-2.566;2023-07-13T14:40:41;20.90;99.90
10492;DHT22;5293;51.464;-2.566;2023-07-13T14:43:13;21.00;99.90
10492;DHT22;5293;51.464;-2.566;2023-07-13T14:45:50;20.90;99.90
10492;DHT22;5293;51.464;-2.566;2023-07-13T14:48:22;20.80;99.90
10492;DHT22;5293;51.464;-2.566;2023-07-13T14:50:56;20.80;99.90
10492;DHT22;5293;51.464;-2.566;2023-07-13T14:53:24;20.80;99.90
10492;DHT22;5293;51.464;-2.566;2023-07-13T14:55:50;20.90;99.90
10492;DHT22;5293;51.464;-2.566;2023-07-13T14:58:16;20.80;99.90
10492;DHT22;5293;51.464;-2.566;2023-07-13T15:00:41;20.80;99.90
10492;DHT22;5293;51.464;-2.566;2023-07-13T15:03:18;20.80;99.90
10492;DHT22;5293;51.464;-2.566;2023-07-13T15:05:45;20.70;99.90
10492;DHT22;5293;51.464;-2.566;2023-07-13T15:08:11;20.80;99.90
10492;DHT22;5293;51.464;-2.566;2023-07-13T15:10:36;20.90;99.90
10492;DHT22;5293;51.464;-2.566;2023-07-13T15:13:19;20.90;99.90
10492;DHT22;5293;51.464;-2.566;2023-07-13T15:15:51;20.90;99.90
10492;DHT22;5293;51.464;-2.566;2023-07-13T15:18:20;21.00;99.90
10492;DHT22;5293;51.464;-2.566;2023-07-13T15:20:47;21.00;99.90
10492;DHT22;5293;51.464;-2.566;2023-07-13T15:23:15;20.80;99.90
10492;DHT22;5293;51.464;-2.566;2023-07-13T15:25:42;20.80;99.90
10492;DHT22;5293;51.464;-2.566;2023-07-13T15:28:09;20.70;99.90
10492;DHT22;5293;51.464;-2.566;2023-07-13T15:30:43;20.70;99.90
10492;DHT22;5293;51.464;-2.566;2023-07-13T15:33:16;20.80;99.90
10492;DHT22;5293;51.464;-2.566;2023-07-13T15:35:44;20.80;99.90
10492;DHT22;5293;51.464;-2.566;2023-07-13T15:38:19;20.80;99.90
10492;DHT22;5293;51.464;-2.566;2023-07-13T15:40:49;20.80;99.90
10492;DHT22;5293;51.464;-2.566;2023-07-13T15:43:19;20.70;99.90
10492;DHT22;5293;51.464;-2.566;2023-07-13T15:45:46;20.80;99.90
10492;DHT22;5293;51.464;-2.566;2023-07-13T15:48:23;20.80;99.90
10492;DHT22;5293;51.464;-2.566;2023-07-13T15:51:00;20.70;99.90
10492;DHT22;5293;51.464;-2.566;2023-07-13T15:53:32;20.80;99.90
10492;DHT22;5293;51.464;-2.566;2023-07-13T15:55:59;20.60;99.90
10492;DHT22;5293;51.464;-2.566;2023-07-13T15:58:26;20.70;99.90
10492;DHT22;5293;51.464;-2.566;2023-07-13T16:00:52;20.70;99.90
10492;DHT22;5293;51.464;-2.566;2023-07-13T16:03:19;20.70;99.90
10492;DHT22;5293;51.464;-2.566;2023-07-13T16:05:45;20.50;99.90
10492;DHT22;5293;51.464;-2.566;2023-07-13T16:08:22;20.40;99.90
10492;DHT22;5293;51.464;-2.566;2023-07-13T16:10:49;20.60;99.90